Time;durP1;ratioP1;P1;durP2;ratioP2;P2;SDS_P1;SDS_P2;PMS_P1;PMS_P2;Temp;Humidity;BMP_temperature;BMP_pressure;BME280_temperature;BME280_humidity;BME280_pressure;Samples;Min_cycle;Max_cycle;Signal;HPM_P1;HPM_P2
2021/12/17 00:00:32;;;;;;;5.45;2.72;;;23.50;54.70;;;;;;5098302;28;20041;-69
2021/12/17 00:05:46;;;;;;;3.33;2.87;;;23.50;55.00;;;;;;5098375;28;20064;-69
2021/12/17 00:08:13;;;;;;;3.15;2.58;;;23.50;54.80;;;;;;5096964;28;20277;-69
2021/12/17 00:10:40;;;;;;;5.63;2.47;;;23.50;55.30;;;;;;5098145;28;20040;-69
2021/12/17 00:13:07;;;;;;;3.20;2.83;;;23.50;55.10;;;;;;5097917;28;20421;-68
2021/12/17 00:15:34;;;;;;;3.60;2.80;;;23.60;55.00;;;;;;5097993;28;20032;-68
2021/12/17 00:18:09;;;;;;;3.22;2.47;;;23.50;55.00;;;;;;5097959;28;20040;-69
2021/12/17 00:48:36;;;;;;;5.45;3.35;;;23.40;55.10;;;;;;5096554;28;20066;-69
2021/12/17 00:53:44;;;;;;;7.03;4.80;;;23.40;54.90;;;;;;5096629;28;20055;-69
2021/12/17 00:56:10;;;;;;;3.58;3.22;;;23.40;55.10;;;;;;5097260;28;20041;-69
2021/12/17 00:58:36;;;;;;;6.28;4.28;;;23.40;55.30;;;;;;5097087;28;20064;-69
2021/12/17 01:01:03;;;;;;;4.18;3.65;;;23.40;55.40;;;;;;5096662;28;20040;-68
2021/12/17 01:03:29;;;;;;;5.75;4.40;;;23.30;55.50;;;;;;5097164;28;20052;-69
2021/12/17 01:05:56;;;;;;;8.10;4.85;;;23.40;55.00;;;;;;5096346;28;20091;-69
2021/12/17 01:08:22;;;;;;;6.15;4.47;;;23.40;55.30;;;;;;5096352;28;20037;-68
2021/12/17 01:10:52;;;;;;;5.60;4.20;;;23.40;55.10;;;;;;5096111;28;20048;-68
2021/12/17 01:13:41;;;;;;;8.27;4.22;;;23.40;55.40;;;;;;5096579;28;20524;-69
2021/12/17 01:16:46;;;;;;;5.85;4.13;;;23.40;55.30;;;;;;5096983;28;20099;-69
2021/12/17 01:20:08;;;;;;;5.35;4.05;;;23.40;55.20;;;;;;5096756;28;20037;-69
2021/12/17 01:25:47;;;;;;;6.43;4.82;;;23.50;55.10;;;;;;5096835;28;20044;-69
2021/12/17 01:42:42;;;;;;;7.18;5.32;;;23.40;55.30;;;;;;5096191;28;20045;-69
2021/12/17 01:45:09;;;;;;;7.57;5.60;;;23.30;55.40;;;;;;5095840;28;20048;-69
2021/12/17 01:47:35;;;;;;;5.55;4.50;;;23.30;55.40;;;;;;5095917;28;20103;-69
2021/12/17 01:56:00;;;;;;;6.80;5.28;;;23.20;55.50;;;;;;5095797;28;20059;-69
2021/12/17 02:01:13;;;;;;;7.57;5.30;;;23.20;55.20;;;;;;5095817;28;20112;-69
2021/12/17 02:03:40;;;;;;;6.20;5.18;;;23.20;55.50;;;;;;5095823;28;20416;-68
2021/12/17 02:06:06;;;;;;;8.98;6.13;;;23.20;55.50;;;;;;5096567;28;20051;-69
2021/12/17 02:08:33;;;;;;;6.97;4.88;;;23.30;55.40;;;;;;5095552;28;20044;-69
2021/12/17 02:19:31;;;;;;;7.28;4.72;;;23.30;55.40;;;;;;5095667;28;20045;-69
2021/12/17 02:22:36;;;;;;;7.20;5.60;;;23.30;55.30;;;;;;5095677;28;20051;-68
2021/12/17 02:32:48;;;;;;;5.90;4.57;;;23.20;54.70;;;;;;5095317;28;20048;-68
2021/12/17 02:35:29;;;;;;;7.07;5.32;;;23.30;55.30;;;;;;5095497;28;20558;-69
2021/12/17 02:37:55;;;;;;;8.70;6.82;;;23.40;55.40;;;;;;5096130;28;20066;-69
2021/12/17 02:46:28;;;;;;;7.22;5.65;;;23.30;55.40;;;;;;5095179;28;20048;-69
2021/12/17 02:48:55;;;;;;;7.30;5.60;;;23.20;55.40;;;;;;5095314;28;20049;-69
2021/12/17 02:51:22;;;;;;;7.43;5.97;;;23.20;55.40;;;;;;5095347;28;20040;-69
2021/12/17 02:53:50;;;;;;;7.00;5.18;;;23.10;55.60;;;;;;5095273;28;20037;-69
2021/12/17 02:56:16;;;;;;;7.50;4.57;;;23.10;55.50;;;;;;5096108;28;20123;-68
2021/12/17 02:58:42;;;;;;;7.03;4.80;;;23.20;55.50;;;;;;5095742;28;20075;-69
2021/12/17 03:01:12;;;;;;;5.88;4.93;;;23.20;55.50;;;;;;5096736;28;20100;-69
2021/12/17 03:03:40;;;;;;;5.55;4.68;;;23.10;55.40;;;;;;5099126;28;20048;-69
2021/12/17 03:06:07;;;;;;;6.65;5.55;;;23.30;55.60;;;;;;5099471;28;20045;-69
2021/12/17 03:08:34;;;;;;;6.43;4.93;;;23.10;55.50;;;;;;5099477;28;20043;-69
2021/12/17 03:11:01;;;;;;;7.40;5.15;;;23.20;55.40;;;;;;5098708;28;20040;-70
2021/12/17 03:13:32;;;;;;;5.47;4.80;;;23.20;55.30;;;;;;5098419;28;20045;-68
2021/12/17 03:16:09;;;;;;;5.90;5.00;;;23.30;55.50;;;;;;5099082;28;20036;-69
2021/12/17 03:24:06;;;;;;;7.72;5.47;;;23.10;55.30;;;;;;5098530;28;20044;-68
2021/12/17 03:26:32;;;;;;;9.30;5.63;;;23.20;55.20;;;;;;5098356;28;20047;-69
2021/12/17 03:29:07;;;;;;;7.07;5.55;;;23.20;54.60;;;;;;5098390;28;20040;-68
2021/12/17 03:31:35;;;;;;;6.50;4.82;;;23.20;55.40;;;;;;5098051;28;20059;-69
2021/12/17 03:34:18;;;;;;;6.95;5.25;;;23.10;55.60;;;;;;5098219;28;20044;-69
2021/12/17 03:36:54;;;;;;;7.38;5.13;;;23.00;55.60;;;;;;5098006;28;20043;-69
2021/12/17 03:39:25;;;;;;;6.28;5.45;;;23.00;55.60;;;;;;5097737;28;20036;-69
2021/12/17 03:41:53;;;;;;;9.48;5.28;;;23.10;55.80;;;;;;5098096;28;20044;-69
2021/12/17 03:44:31;;;;;;;7.55;5.53;;;22.90;55.70;;;;;;5098173;28;20055;-69
2021/12/17 03:47:01;;;;;;;6.97;4.32;;;23.00;55.80;;;;;;5098590;28;20049;-70
2021/12/17 03:49:28;;;;;;;8.93;6.18;;;22.90;55.80;;;;;;5097903;28;20056;-71
2021/12/17 03:52:04;;;;;;;8.23;5.13;;;22.80;55.60;;;;;;5097971;28;20050;-71
2021/12/17 03:54:34;;;;;;;7.60;5.32;;;23.00;55.80;;;;;;5097666;28;20136;-70
2021/12/17 03:57:05;;;;;;;8.40;6.07;;;22.90;55.60;;;;;;5098552;28;20055;-70
2021/12/17 03:59:33;;;;;;;5.82;5.25;;;22.90;55.40;;;;;;5097754;28;20112;-70
2021/12/17 04:01:59;;;;;;;7.55;5.80;;;23.00;55.60;;;;;;5097646;28;20052;-70
2021/12/17 04:04:26;;;;;;;8.40;5.40;;;22.90;55.60;;;;;;5097714;28;20052;-71
2021/12/17 04:07:11;;;;;;;5.32;3.85;;;23.00;55.50;;;;;;5097370;28;20047;-70
2021/12/17 04:09:55;;;;;;;5.43;4.72;;;23.00;55.50;;;;;;5098083;28;20052;-70
2021/12/17 04:12:30;;;;;;;7.53;5.07;;;23.10;55.40;;;;;;5097255;28;20052;-70
2021/12/17 04:15:10;;;;;;;5.97;5.18;;;23.00;55.40;;;;;;5088760;28;20041;-70
2021/12/17 04:17:43;;;;;;;6.65;5.15;;;23.10;55.50;;;;;;5083741;28;20048;-70
2021/12/17 04:20:11;;;;;;;7.03;5.18;;;23.10;55.30;;;;;;5077770;28;20036;-70
2021/12/17 04:22:38;;;;;;;7.88;5.50;;;23.10;55.30;;;;;;5077791;28;20052;-70
2021/12/17 04:25:05;;;;;;;6.68;5.30;;;23.00;55.30;;;;;;5077250;28;20056;-70
2021/12/17 04:27:31;;;;;;;9.20;5.22;;;22.90;55.40;;;;;;5077295;28;20048;-70
2021/12/17 04:29:58;;;;;;;7.20;5.05;;;23.00;54.90;;;;;;5077290;28;20087;-69
2021/12/17 04:32:25;;;;;;;7.20;4.88;;;22.90;55.60;;;;;;5077123;28;20032;-68
2021/12/17 04:34:52;;;;;;;8.02;5.03;;;22.90;55.60;;;;;;5077547;28;20055;-69
2021/12/17 04:37:22;;;;;;;5.43;4.28;;;22.90;55.40;;;;;;5077059;28;20032;-69
2021/12/17 04:39:57;;;;;;;6.53;4.93;;;23.00;55.20;;;;;;5076880;28;20060;-69
2021/12/17 04:42:43;;;;;;;6.68;5.07;;;23.00;55.20;;;;;;5076773;28;20044;-69
2021/12/17 04:45:11;;;;;;;7.78;4.88;;;23.00;55.30;;;;;;5076788;28;20047;-69
2021/12/17 04:58:58;;;;;;;6.68;4.70;;;23.00;55.40;;;;;;5076500;28;20051;-70
2021/12/17 05:01:24;;;;;;;7.80;4.75;;;22.90;55.40;;;;;;5076168;28;20108;-70
2021/12/17 05:03:51;;;;;;;7.53;4.80;;;22.90;55.50;;;;;;5109166;28;20052;-70
2021/12/17 05:06:18;;;;;;;6.60;5.15;;;23.00;54.70;;;;;;5109560;28;20044;-70
2021/12/17 05:08:59;;;;;;;8.48;5.35;;;23.00;55.40;;;;;;5109507;28;20080;-71
2021/12/17 05:18:13;;;;;;;9.77;5.57;;;23.10;52.50;;;;;;5110245;28;20059;-71
2021/12/17 05:19:49;;;;;;;5.80;3.08;;;22.70;54.80;;;;;;5095490;28;20048;-71
2021/12/17 05:22:17;;;;;;;6.00;4.53;;;22.80;55.30;;;;;;5095237;28;20048;-71
2021/12/17 05:24:44;;;;;;;5.03;3.95;;;22.80;56.10;;;;;;5094582;28;20043;-69
2021/12/17 05:27:10;;;;;;;4.85;4.28;;;23.00;58.00;;;;;;5096343;28;20040;-67
2021/12/17 05:29:59;;;;;;;6.50;4.82;;;23.30;58.30;;;;;;5095490;28;20052;-67
2021/12/17 05:32:25;;;;;;;7.57;5.53;;;23.50;57.50;;;;;;5095474;28;20051;-68
2021/12/17 05:34:56;;;;;;;6.93;5.07;;;23.60;59.60;;;;;;5095445;28;20072;-67
2021/12/17 05:37:23;;;;;;;7.22;5.18;;;23.60;53.60;;;;;;5096196;28;20048;-69
2021/12/17 05:39:49;;;;;;;10.15;5.25;;;23.50;50.10;;;;;;5095351;28;20041;-69
2021/12/17 05:42:15;;;;;;;8.52;4.70;;;23.60;50.10;;;;;;5095409;28;20471;-69
2021/12/17 05:45:10;;;;;;;8.05;4.78;;;23.50;50.10;;;;;;5095634;28;20044;-69
2021/12/17 05:47:37;;;;;;;8.55;4.70;;;23.40;49.10;;;;;;5095320;28;20051;-69
2021/12/17 05:50:03;;;;;;;6.53;4.43;;;23.40;48.20;;;;;;5095319;28;20045;-69
2021/12/17 05:52:30;;;;;;;9.27;5.93;;;23.50;47.90;;;;;;5095254;28;20036;-69
2021/12/17 05:54:56;;;;;;;8.63;5.15;;;23.40;47.10;;;;;;5095262;28;20049;-68
2021/12/17 05:57:22;;;;;;;9.98;5.22;;;23.40;47.10;;;;;;5095362;28;20051;-68
2021/12/17 05:59:49;;;;;;;8.65;5.47;;;23.30;47.60;;;;;;5095019;28;20044;-68
2021/12/17 06:02:18;;;;;;;6.20;4.05;;;23.30;48.20;;;;;;5095277;28;20037;-70
2021/12/17 06:04:47;;;;;;;3.35;2.60;;;23.20;42.80;;;;;;5094975;28;20044;-70
2021/12/17 06:07:23;;;;;;;9.23;5.05;;;23.20;41.60;;;;;;5095081;28;20050;-69
2021/12/17 06:09:51;;;;;;;5.65;4.03;;;23.20;47.30;;;;;;5095015;28;20041;-70
2021/12/17 06:12:21;;;;;;;2.58;1.85;;;23.20;50.50;;;;;;5095100;28;20104;-70
2021/12/17 06:14:47;;;;;;;4.68;3.58;;;23.40;51.90;;;;;;5094259;28;20064;-70
2021/12/17 06:17:13;;;;;;;2.97;2.28;;;23.40;48.00;;;;;;5094805;28;20107;-70
2021/12/17 06:19:42;;;;;;;6.45;4.50;;;23.50;51.30;;;;;;5094724;28;20045;-70
2021/12/17 06:22:08;;;;;;;5.78;4.50;;;23.40;50.40;;;;;;5094944;28;20040;-72
2021/12/17 06:24:36;;;;;;;4.50;2.55;;;23.50;44.60;;;;;;5094327;28;20040;-70
2021/12/17 06:27:02;;;;;;;5.95;4.32;;;23.40;40.90;;;;;;5094500;28;20041;-71
2021/12/17 06:29:29;;;;;;;5.45;4.25;;;23.30;40.70;;;;;;5094264;28;20048;-70
2021/12/17 06:32:02;;;;;;;;;;;23.10;41.00;;;;;;5092276;28;20075;-70
2021/12/17 06:34:28;;;;;;;9.85;5.18;;;23.00;40.40;;;;;;5095651;28;19916;-70
2021/12/17 06:36:54;;;;;;;5.57;3.40;;;23.00;40.50;;;;;;5098252;28;20043;-70
2021/12/17 06:39:20;;;;;;;5.95;3.65;;;22.90;42.20;;;;;;5098091;28;20043;-70
2021/12/17 06:41:46;;;;;;;3.90;2.85;;;22.90;40.90;;;;;;5098682;28;20040;-70
2021/12/17 06:44:17;;;;;;;5.13;2.25;;;22.90;42.20;;;;;;5098265;28;20067;-71
2021/12/17 07:00:33;;;;;;;;;;;23.30;56.40;;;;;;5097437;28;20041;-71
2021/12/17 07:18:27;;;;;;;6.75;4.55;;;23.20;55.30;;;;;;5094336;28;20040;-72
2021/12/17 07:23:22;;;;;;;8.00;5.03;;;23.20;54.90;;;;;;5095369;28;20067;-73
2021/12/17 07:33:59;;;;;;;6.30;4.50;;;23.10;57.30;;;;;;5097468;28;20038;-71
2021/12/17 07:36:55;;;;;;;11.40;4.50;;;23.10;57.50;;;;;;5096362;28;20052;-73
2021/12/17 07:39:23;;;;;;;6.18;3.15;;;23.20;57.30;;;;;;5096649;28;20037;-72
2021/12/17 07:42:12;;;;;;;9.50;4.70;;;23.30;57.40;;;;;;5092354;28;20060;-72
2021/12/17 07:44:39;;;;;;;7.50;4.15;;;23.30;56.90;;;;;;5097189;28;20144;-71
2021/12/17 07:47:26;;;;;;;9.38;4.75;;;23.30;57.20;;;;;;5077359;28;20059;-71
2021/12/17 07:50:18;;;;;;;7.28;3.88;;;23.30;57.20;;;;;;5096620;28;20768;-71
2021/12/17 07:52:59;;;;;;;6.00;4.38;;;23.30;57.40;;;;;;5096332;28;20048;-72
2021/12/17 07:55:27;;;;;;;7.90;4.25;;;23.30;57.30;;;;;;5093802;28;20066;-69
2021/12/17 07:57:54;;;;;;;7.55;5.13;;;23.40;57.30;;;;;;5079692;28;20091;-69
2021/12/17 08:00:27;;;;;;;7.05;3.90;;;23.30;57.20;;;;;;5093531;28;20047;-71
2021/12/17 08:02:59;;;;;;;9.63;4.10;;;23.20;57.50;;;;;;5096987;28;20070;-70
2021/12/17 08:05:44;;;;;;;4.70;3.40;;;23.40;57.90;;;;;;5096667;28;20280;-75
2021/12/17 08:08:15;;;;;;;9.50;5.15;;;23.40;58.00;;;;;;5096260;28;20044;-72
2021/12/17 08:10:43;;;;;;;5.22;3.42;;;23.30;57.30;;;;;;5096495;28;20041;-72
2021/12/17 08:13:17;;;;;;;8.05;4.07;;;23.40;57.90;;;;;;5096741;28;20112;-71
2021/12/17 08:15:52;;;;;;;6.60;3.95;;;23.40;57.70;;;;;;5096891;28;20040;-72
2021/12/17 08:26:25;;;;;;;3.78;1.95;;;22.90;57.90;;;;;;5095291;28;20037;-74
2021/12/17 08:31:19;;;;;;;7.00;2.75;;;23.10;54.10;;;;;;5095987;28;20048;-71
2021/12/17 08:33:46;;;;;;;7.82;4.38;;;23.10;51.50;;;;;;5096209;28;20044;-70
2021/12/17 08:36:14;;;;;;;3.20;2.42;;;23.20;47.80;;;;;;5096500;28;20067;-70
2021/12/17 08:38:42;;;;;;;11.95;5.00;;;23.20;47.80;;;;;;5097092;28;20073;-72
2021/12/17 08:41:30;;;;;;;10.63;3.97;;;23.20;47.60;;;;;;5095877;28;20045;-74
2021/12/17 08:43:59;;;;;;;11.02;4.22;;;23.20;46.70;;;;;;5096134;28;20051;-71
2021/12/17 08:46:28;;;;;;;3.42;2.63;;;23.40;45.40;;;;;;5094744;28;20039;-71
2021/12/17 08:49:00;;;;;;;6.15;3.88;;;23.20;44.80;;;;;;5094776;28;20049;-71
2021/12/17 08:51:41;;;;;;;7.20;3.65;;;23.30;45.10;;;;;;5095361;28;20037;-72
2021/12/17 08:54:10;;;;;;;7.78;4.15;;;23.30;44.10;;;;;;5095377;28;20040;-70
2021/12/17 08:56:47;;;;;;;5.22;3.13;;;23.20;43.20;;;;;;5075055;28;20037;-70
2021/12/17 08:59:17;;;;;;;8.60;4.47;;;23.10;42.90;;;;;;5092170;28;20057;-70
2021/12/17 09:02:09;;;;;;;4.88;4.18;;;23.00;38.10;;;;;;5087040;28;20066;-70
2021/12/17 09:04:40;;;;;;;7.70;3.33;;;22.80;41.10;;;;;;5095274;28;20044;-70
2021/12/17 09:07:10;;;;;;;4.20;3.80;;;22.80;43.70;;;;;;5095498;28;20127;-70
2021/12/17 09:09:38;;;;;;;7.70;4.60;;;22.70;42.00;;;;;;5095094;28;20036;-70
2021/12/17 09:12:16;;;;;;;7.45;4.25;;;22.60;40.50;;;;;;5077733;28;20051;-70
2021/12/17 09:14:43;;;;;;;9.20;4.43;;;22.60;41.80;;;;;;5094571;28;20048;-70
2021/12/17 09:17:35;;;;;;;5.18;3.38;;;22.40;43.20;;;;;;5095503;28;20040;-70
2021/12/17 09:20:04;;;;;;;4.03;1.85;;;22.50;48.10;;;;;;5094930;28;20067;-70
2021/12/17 09:22:33;;;;;;;5.97;2.88;;;22.50;50.60;;;;;;5095794;28;20067;-70
2021/12/17 09:25:04;;;;;;;8.80;3.33;;;22.70;46.90;;;;;;5095027;28;20040;-70
2021/12/17 09:27:51;;;;;;;7.20;4.55;;;22.90;46.30;;;;;;5092972;28;20036;-71
2021/12/17 09:30:39;;;;;;;6.68;3.15;;;22.90;48.90;;;;;;5094369;28;20056;-71
2021/12/17 09:33:06;;;;;;;4.18;2.92;;;23.10;46.30;;;;;;5093147;28;20078;-70
2021/12/17 09:35:33;;;;;;;4.03;2.95;;;23.00;49.10;;;;;;5096032;28;20040;-70
2021/12/17 09:37:59;;;;;;;4.03;2.15;;;22.90;42.60;;;;;;5095706;28;20032;-71
2021/12/17 09:40:25;;;;;;;9.55;1.98;;;23.20;48.40;;;;;;5095501;28;20059;-70
2021/12/17 09:42:51;;;;;;;7.93;2.95;;;23.20;48.30;;;;;;5095980;28;20047;-70
2021/12/17 09:45:18;;;;;;;7.10;3.80;;;23.40;48.10;;;;;;5095774;28;20048;-70
2021/12/17 09:47:46;;;;;;;3.53;3.00;;;23.40;48.20;;;;;;5095391;28;20041;-70
2021/12/17 09:50:16;;;;;;;10.20;3.45;;;23.40;48.30;;;;;;5095761;28;20040;-71
2021/12/17 09:52:42;;;;;;;7.55;2.95;;;23.40;48.40;;;;;;5095537;28;20033;-71
2021/12/17 09:55:11;;;;;;;5.13;3.22;;;23.60;47.80;;;;;;5095257;28;20040;-70
2021/12/17 09:57:39;;;;;;;8.82;3.90;;;23.40;42.00;;;;;;5095076;28;20032;-71
2021/12/17 10:00:13;;;;;;;4.50;3.67;;;23.60;47.40;;;;;;5091763;28;20043;-70
2021/12/17 10:02:43;;;;;;;3.45;2.67;;;23.70;48.30;;;;;;5094948;28;20066;-72
2021/12/17 10:05:16;;;;;;;6.03;3.40;;;23.80;47.40;;;;;;5094851;28;20075;-70
2021/12/17 10:07:44;;;;;;;9.45;3.55;;;23.60;49.80;;;;;;5095133;28;20051;-70
2021/12/17 10:10:13;;;;;;;3.63;2.55;;;23.70;50.10;;;;;;5096886;28;20040;-71
2021/12/17 10:12:40;;;;;;;5.28;3.83;;;23.70;50.50;;;;;;5098677;28;20046;-70
2021/12/17 10:15:12;;;;;;;5.68;2.92;;;23.70;50.90;;;;;;5099327;28;20036;-70
2021/12/17 10:18:01;;;;;;;4.25;2.28;;;23.80;52.60;;;;;;5099052;28;20035;-70
2021/12/17 10:20:35;;;;;;;6.13;3.00;;;23.80;54.20;;;;;;5096234;28;20044;-70
2021/12/17 10:23:10;;;;;;;3.20;2.22;;;23.80;51.60;;;;;;5099011;28;20044;-70
2021/12/17 10:25:46;;;;;;;5.65;2.92;;;23.80;55.10;;;;;;5098923;28;20055;-69
2021/12/17 10:28:16;;;;;;;7.30;3.20;;;23.80;55.80;;;;;;5098199;28;20045;-69
2021/12/17 10:30:45;;;;;;;6.35;3.03;;;23.80;55.40;;;;;;5098291;28;20079;-68
2021/12/17 10:33:17;;;;;;;6.47;3.13;;;23.80;55.90;;;;;;5098534;28;20055;-69
2021/12/17 10:35:47;;;;;;;4.18;2.83;;;23.80;55.80;;;;;;5098505;28;20051;-70
2021/12/17 10:38:16;;;;;;;5.82;2.10;;;23.80;57.60;;;;;;5097870;28;20033;-70
2021/12/17 10:40:51;;;;;;;2.22;1.85;;;24.00;58.10;;;;;;5098601;28;20032;-70
2021/12/17 10:43:34;;;;;;;2.53;1.98;;;24.30;53.90;;;;;;5098763;28;20045;-69
2021/12/17 10:46:11;;;;;;;5.00;2.58;;;24.40;46.00;;;;;;5098878;28;20068;-70
2021/12/17 10:54:15;;;;;;;5.20;2.83;;;24.50;42.20;;;;;;5098406;28;20067;-68
2021/12/17 10:56:46;;;;;;;5.03;2.42;;;24.50;43.70;;;;;;5098493;28;20036;-68
2021/12/17 10:59:15;;;;;;;3.75;2.70;;;24.80;49.90;;;;;;5098742;28;20048;-68
2021/12/17 11:01:59;;;;;;;5.95;3.67;;;25.00;42.60;;;;;;5098374;28;20094;-69
2021/12/17 11:04:31;;;;;;;6.70;3.17;;;25.00;37.70;;;;;;5096361;28;20118;-69
2021/12/17 11:07:05;;;;;;;5.38;3.13;;;25.00;48.20;;;;;;5098654;28;20031;-68
2021/12/17 11:09:48;;;;;;;6.38;3.50;;;25.00;50.40;;;;;;5097822;28;20039;-68
2021/12/17 11:12:23;;;;;;;4.65;3.05;;;25.00;51.60;;;;;;5098451;28;20055;-67
2021/12/17 11:14:51;;;;;;;6.22;3.08;;;24.90;51.90;;;;;;5097892;28;20048;-68
2021/12/17 11:17:23;;;;;;;4.50;2.97;;;24.70;50.90;;;;;;5098243;28;20044;-68
2021/12/17 11:20:12;;;;;;;4.20;2.53;;;24.80;50.50;;;;;;5098509;28;20037;-68
2021/12/17 11:22:47;;;;;;;6.55;3.50;;;24.70;50.30;;;;;;5093924;28;20017;-67
2021/12/17 11:25:17;;;;;;;7.30;3.22;;;24.70;49.30;;;;;;5097549;28;20036;-67
2021/12/17 11:27:43;;;;;;;4.80;2.72;;;24.70;51.70;;;;;;5063760;28;20059;-68
2021/12/17 11:30:18;;;;;;;4.10;2.33;;;24.50;49.50;;;;;;5097972;28;20045;-68
2021/12/17 11:32:46;;;;;;;6.73;2.60;;;24.60;52.30;;;;;;5094846;28;20037;-67
2021/12/17 11:35:15;;;;;;;6.47;2.97;;;24.60;52.10;;;;;;5097395;28;20096;-68
2021/12/17 11:37:44;;;;;;;3.47;2.00;;;24.60;51.20;;;;;;5097530;28;20036;-68
2021/12/17 11:40:27;;;;;;;3.15;2.33;;;24.50;53.10;;;;;;5097604;28;20036;-70
2021/12/17 11:43:29;;;;;;;7.68;2.20;;;24.60;51.50;;;;;;5095810;28;20040;-70
2021/12/17 11:46:01;;;;;;;7.65;2.80;;;24.30;50.80;;;;;;5093609;28;20043;-68
2021/12/17 11:48:30;;;;;;;4.13;2.58;;;24.70;54.00;;;;;;5095090;28;20044;-68
2021/12/17 11:51:15;;;;;;;5.07;2.80;;;24.70;52.20;;;;;;5097107;28;20036;-68
2021/12/17 11:54:00;;;;;;;7.05;3.20;;;24.70;53.20;;;;;;5096846;28;20079;-68
2021/12/17 11:56:51;;;;;;;6.00;2.85;;;24.60;52.70;;;;;;5094124;28;20058;-69
2021/12/17 11:59:27;;;;;;;8.20;3.20;;;24.60;53.90;;;;;;5096524;28;20025;-69
2021/12/17 12:02:22;;;;;;;4.75;2.28;;;24.50;54.40;;;;;;5095846;28;20044;-70
2021/12/17 12:04:58;;;;;;;7.95;2.85;;;24.60;54.80;;;;;;5096064;28;20087;-69
2021/12/17 12:07:24;;;;;;;3.88;2.38;;;24.50;53.10;;;;;;5091656;28;20051;-69
2021/12/17 12:09:59;;;;;;;7.22;3.05;;;24.50;54.00;;;;;;5097101;28;20099;-68
2021/12/17 12:12:37;;;;;;;8.32;3.65;;;24.40;54.10;;;;;;5096825;28;20048;-69
2021/12/17 12:15:23;;;;;;;6.85;2.20;;;24.60;54.10;;;;;;5078414;28;20041;-68
2021/12/17 12:18:23;;;;;;;4.65;2.75;;;24.60;54.90;;;;;;5097260;28;20104;-71
2021/12/17 12:20:51;;;;;;;6.50;3.08;;;24.80;54.40;;;;;;5094329;28;20064;-68
2021/12/17 12:23:28;;;;;;;5.15;3.15;;;24.90;54.10;;;;;;5097122;28;20048;-69
2021/12/17 12:26:03;;;;;;;5.57;3.45;;;24.90;52.20;;;;;;5096763;28;20044;-69
2021/12/17 12:28:47;;;;;;;7.43;3.67;;;24.80;53.40;;;;;;5095187;28;20044;-68
2021/12/17 12:31:19;;;;;;;4.75;2.60;;;24.50;54.20;;;;;;5093066;28;20062;-67
2021/12/17 12:34:04;;;;;;;3.55;2.30;;;24.50;52.90;;;;;;5095910;28;20049;-68
2021/12/17 12:36:58;;;;;;;6.60;2.72;;;24.50;53.40;;;;;;5095053;28;20092;-68
2021/12/17 12:39:55;;;;;;;5.72;2.17;;;24.40;53.90;;;;;;5091398;28;20067;-70
2021/12/17 12:42:32;;;;;;;6.22;2.58;;;24.40;54.10;;;;;;5094039;28;20052;-70
2021/12/17 12:44:59;;;;;;;6.75;2.22;;;24.30;54.40;;;;;;5096551;28;20044;-70
2021/12/17 12:47:26;;;;;;;4.43;2.35;;;24.30;52.70;;;;;;5095471;28;20040;-70
2021/12/17 12:49:59;;;;;;;3.63;2.83;;;24.20;53.70;;;;;;5096407;28;20051;-68
2021/12/17 12:52:33;;;;;;;4.07;2.70;;;24.10;54.70;;;;;;5096538;28;20082;-68
2021/12/17 12:55:20;;;;;;;4.10;2.60;;;24.10;53.50;;;;;;5096479;28;20060;-68
2021/12/17 12:57:53;;;;;;;4.18;2.33;;;24.10;54.90;;;;;;5096146;28;20032;-68
2021/12/17 13:00:23;;;;;;;4.88;2.50;;;24.00;53.40;;;;;;5096089;28;20051;-69
2021/12/17 13:03:12;;;;;;;5.68;2.50;;;24.00;53.40;;;;;;5093365;28;20032;-68
2021/12/17 13:05:40;;;;;;;6.65;2.90;;;24.00;54.60;;;;;;5094068;28;20035;-69
2021/12/17 13:08:12;;;;;;;4.90;2.60;;;23.90;55.20;;;;;;5093919;28;20044;-68
2021/12/17 13:10:43;;;;;;;4.43;2.85;;;24.00;55.50;;;;;;5096171;28;20067;-68
2021/12/17 13:16:07;;;;;;;5.45;2.38;;;23.90;54.40;;;;;;5095225;28;20041;-69
2021/12/17 13:23:56;;;;;;;4.85;2.65;;;24.00;54.00;;;;;;5093424;28;20033;-69
2021/12/17 13:26:26;;;;;;;4.43;2.10;;;23.90;53.80;;;;;;5096019;28;20044;-69
2021/12/17 13:28:59;;;;;;;4.10;2.03;;;23.80;53.50;;;;;;5095428;28;20032;-68
2021/12/17 13:31:46;;;;;;;;;;;23.90;55.50;;;;;;5093467;28;20091;-69
2021/12/17 13:34:18;;;;;;;4.10;2.10;;;23.80;54.20;;;;;;5095793;28;19912;-70
2021/12/17 13:36:56;;;;;;;5.65;2.47;;;23.70;55.30;;;;;;5095626;28;20150;-70
2021/12/17 13:39:25;;;;;;;2.85;1.73;;;23.70;54.70;;;;;;5095229;28;20048;-69
2021/12/17 13:41:52;;;;;;;6.22;2.40;;;23.70;55.60;;;;;;5095670;28;20108;-70
2021/12/17 13:44:33;;;;;;;8.30;2.92;;;23.70;55.30;;;;;;5095167;28;20059;-69
2021/12/17 13:47:12;;;;;;;6.80;2.55;;;23.60;53.60;;;;;;5091925;28;20041;-70
2021/12/17 13:49:45;;;;;;;3.17;2.40;;;23.60;55.90;;;;;;5094616;28;20052;-69
2021/12/17 13:52:11;;;;;;;;;;;23.50;54.40;;;;;;5094353;28;20045;-69
2021/12/17 13:54:38;;;;;;;6.07;2.92;;;23.60;56.10;;;;;;5095465;28;20482;-69
2021/12/17 13:57:06;;;;;;;4.70;2.90;;;23.50;55.90;;;;;;5095317;28;20051;-70
2021/12/17 13:59:35;;;;;;;4.30;2.80;;;23.50;56.00;;;;;;5095609;28;20036;-69
2021/12/17 14:02:18;;;;;;;5.70;2.83;;;23.50;56.20;;;;;;5095497;28;20048;-70
2021/12/17 14:05:05;;;;;;;5.82;2.80;;;23.40;56.10;;;;;;5095499;28;20044;-70
2021/12/17 14:07:33;;;;;;;3.83;2.50;;;23.40;55.30;;;;;;5093598;28;20044;-70
2021/12/17 14:10:10;;;;;;;5.22;2.95;;;23.40;55.70;;;;;;5095521;28;20051;-70
2021/12/17 14:12:39;;;;;;;7.15;3.53;;;23.40;55.30;;;;;;5095480;28;20074;-71
2021/12/17 14:15:11;;;;;;;7.82;3.47;;;23.40;55.20;;;;;;5094898;28;20105;-70
2021/12/17 14:17:47;;;;;;;5.10;3.00;;;23.40;56.40;;;;;;5094918;28;20032;-69
2021/12/17 14:20:14;;;;;;;3.42;2.45;;;23.40;56.50;;;;;;5093584;28;20044;-69
2021/12/17 14:22:43;;;;;;;9.18;2.97;;;23.30;56.50;;;;;;5095235;28;20046;-69
2021/12/17 14:25:28;;;;;;;4.50;3.10;;;23.70;59.00;;;;;;5092406;28;20064;-69
2021/12/17 14:27:56;;;;;;;4.13;2.35;;;23.80;57.30;;;;;;5095350;28;20056;-70
2021/12/17 14:30:24;;;;;;;4.07;1.38;;;23.70;56.40;;;;;;5095125;28;20111;-69
2021/12/17 14:32:51;;;;;;;6.22;2.97;;;23.70;47.10;;;;;;5095035;28;20040;-69
2021/12/17 14:35:40;;;;;;;4.03;1.73;;;23.70;47.80;;;;;;5095323;28;20066;-69
2021/12/17 14:38:06;;;;;;;1.50;1.33;;;23.80;47.40;;;;;;5095354;28;20036;-69
2021/12/17 14:40:42;;;;;;;9.05;3.33;;;24.00;45.00;;;;;;5095459;28;20051;-70
2021/12/17 14:43:24;;;;;;;3.83;2.47;;;24.00;43.70;;;;;;5095152;28;20658;-69
2021/12/17 14:48:59;;;;;;;6.95;3.10;;;24.00;53.40;;;;;;5095303;28;20112;-69
2021/12/17 14:57:22;;;;;;;6.93;3.35;;;24.00;54.50;;;;;;5094956;28;20040;-68
2021/12/17 15:05:14;;;;;;;5.10;3.25;;;24.10;55.90;;;;;;5098111;28;20092;-68
2021/12/17 15:07:40;;;;;;;5.78;3.65;;;23.90;56.00;;;;;;5097854;28;20032;-68
2021/12/17 15:10:09;;;;;;;8.15;4.18;;;24.00;56.20;;;;;;5093590;28;20032;-68
2021/12/17 15:12:38;;;;;;;5.60;3.40;;;24.10;55.80;;;;;;5097942;28;20040;-68
2021/12/17 15:15:15;;;;;;;5.60;3.22;;;24.00;56.40;;;;;;5094924;28;20056;-68
2021/12/17 15:17:43;;;;;;;5.63;3.30;;;24.00;56.20;;;;;;5098147;28;20051;-68
2021/12/17 15:20:10;;;;;;;6.00;3.58;;;24.10;56.40;;;;;;5097903;28;20096;-68
2021/12/17 15:22:37;;;;;;;4.95;3.28;;;24.00;56.00;;;;;;5096888;28;20064;-68
2021/12/17 15:25:06;;;;;;;12.68;3.75;;;24.10;56.60;;;;;;5097532;28;20052;-68
2021/12/17 15:27:33;;;;;;;6.40;3.30;;;24.10;56.50;;;;;;5097117;28;20036;-69
2021/12/17 15:30:06;;;;;;;6.72;3.75;;;24.00;56.40;;;;;;5097259;28;20144;-68
2021/12/17 15:32:33;;;;;;;7.63;3.53;;;24.20;55.40;;;;;;5098025;28;20041;-68
2021/12/17 15:34:59;;;;;;;6.18;4.18;;;24.00;56.50;;;;;;5097364;28;20053;-67
2021/12/17 15:37:26;;;;;;;10.02;4.10;;;24.00;56.70;;;;;;5097663;28;20132;-69
2021/12/17 15:39:52;;;;;;;7.82;4.10;;;24.00;56.90;;;;;;5097599;28;20092;-68
2021/12/17 15:42:18;;;;;;;6.97;4.22;;;24.00;57.00;;;;;;5097427;28;20036;-71
2021/12/17 15:44:45;;;;;;;9.25;4.10;;;24.10;57.00;;;;;;5097192;28;20062;-72
2021/12/17 15:47:11;;;;;;;7.22;3.42;;;24.10;54.70;;;;;;5093006;28;20044;-70
2021/12/17 15:49:37;;;;;;;4.45;3.08;;;24.20;53.40;;;;;;5095287;28;20068;-71
2021/12/17 15:52:07;;;;;;;6.95;3.42;;;24.10;51.40;;;;;;5097328;28;20070;-70
2021/12/17 15:54:36;;;;;;;3.85;3.08;;;24.30;49.20;;;;;;5094232;28;20040;-74
2021/12/17 15:57:05;;;;;;;13.18;4.53;;;24.20;48.10;;;;;;5097209;28;20040;-69
2021/12/17 15:59:31;;;;;;;7.85;4.38;;;24.20;49.70;;;;;;5094699;28;20047;-68
2021/12/17 16:01:58;;;;;;;5.57;4.05;;;24.30;44.90;;;;;;5097275;28;20040;-66
2021/12/17 16:04:27;;;;;;;67.93;16.05;;;24.50;48.10;;;;;;5096527;28;20044;-69
2021/12/17 16:06:53;;;;;;;18.92;7.07;;;24.90;48.40;;;;;;5096703;28;20082;-66
2021/12/17 16:22:47;;;;;;;1.27;0.88;;;24.80;45.10;;;;;;5093649;28;20036;-69
2021/12/17 16:25:14;;;;;;;5.05;3.47;;;25.00;45.70;;;;;;5096675;28;20041;-69
2021/12/17 16:27:40;;;;;;;9.43;2.97;;;24.80;39.80;;;;;;5096456;28;20047;-67
2021/12/17 16:30:08;;;;;;;11.60;2.65;;;24.60;37.20;;;;;;5077668;28;20056;-69